Preview of NWS' New Version of Forecast
This preview is not operational and should not be used for support decisions.
Latest weather observations around

LOS GATOS (LSGC1)

Using English Units (Switch to International System of Units)
Date/ Time (PDT) Wind (mph) Vis. (mi) Weather Sky Cond. Temp (°F) Rel. Humidity Wind Chill (°F) Heat Index (°F) Pressure Precip. (in)
Air Dwpt 6 hour Altimeter (inHg) Sea level (inHg) 1 hr 3 hr 6 hr
Max Min
Apr 19 11:32 NNE 7   Clear   59 39     48%              
Apr 19 10:32 N 4   Clear   58 39     50%              
Apr 19 09:32 S 3   Clear   53 37     55%              
Apr 19 08:32 N 2   Clear   49 37     63%              
Apr 19 07:32 ENE 1   Clear   43 39     85%              
Apr 19 06:32 NNE 3   Clear   39 37     91% 37            
Apr 19 05:32 N 2   Clear   39 38     95%              
Apr 19 04:32 NNE 3   Clear   38 37     95% 36            
Apr 19 03:32 NNE 4   Clear   40 39     96% 37            
Apr 19 02:32 N 5   Clear   40 38     91% 36            
Apr 19 01:32 NNE 6   Clear   41 37     87% 37            
Apr 19 00:32 NNE 4   Clear   42 37     82% 40            
Apr 18 23:32 NNE 6   Clear   42 33     70% 38            
Apr 18 22:32 NNE 5   Clear   44 30     57% 41            
Apr 18 21:32 NNE 3   Clear   44 33     65% 43            
Apr 18 20:32 NNE 4   Clear   45 36     70% 43            
Apr 18 19:32 NE 4   Clear   48 36     62% 47            
Apr 18 18:32 NE 1   Clear   54 36     51%              
Apr 18 17:32 NNW 5   Clear   55 38     52%              
Apr 18 16:32 N 4   Clear   53 38     57%              
Apr 18 15:32 N 6   Clear   54 38     55%              
Apr 18 14:32 N 4   Clear   57 37     47%              
Apr 18 13:32 N 6   Clear   58 38     47%              
Apr 18 12:32 N 5   Clear   58 40     52%              
Apr 18 11:32 NNW 4   Clear   54 40     58%              
Apr 18 10:32 N 5   Clear   49 37     64% 47            
Apr 18 09:32 NNE 3   Clear   47 37     69% 46            
Apr 18 08:32 SE 3   Clear   45 38     75% 44            
Apr 18 07:32 NNE 4   Clear   44 33     65% 42            
Apr 18 06:32 NNE 3   Clear   43 35     74% 42            
Apr 18 05:32 NE 3   Clear   42 35     75% 41            
Apr 18 04:32 N 4   Clear   43 37     80% 41            
Apr 18 03:32 N 3   Clear   43 37     80% 42            
Apr 18 02:32 NE 4   Clear   43 36     76% 41            
Apr 18 01:32 NNE 6   Clear   44 30     58% 41            
Apr 18 00:32 NNE 7   Clear   44 30     57% 40            
Apr 17 23:32 NNE 5   Clear   45 37     74% 42            
Apr 17 22:32 NE 6   Clear   45 36     71% 42            
Apr 17 21:32 NNE 4   Clear   46 36     68% 44            
Apr 17 20:32 NNE 3   Clear   46 37     72% 45            
Apr 17 19:32 NNW 4   Clear   51 39     64%              
Apr 17 18:32 NNW 7   Clear   55 33     43%              
Apr 17 17:32 NNW 6   Clear   60 32     34%              
Apr 17 16:32 N 6   Clear   61        %              
Apr 17 15:32 NNW 5   Clear   63 29     28%              
Apr 17 14:32 WNW 4   Clear   61        %              
Apr 17 13:32 N 5   Clear   60 30     32%              
Apr 17 12:32 N 5   Clear   58 36     44%              
Apr 17 11:32 NNW 5   Clear   56 38     51%              
Apr 17 10:32 NNW 5   Clear   52 39     60%              
Apr 17 09:32 N 5   Clear   49 39     67% 47            
Apr 17 08:32 N 4   Clear   46 39     75% 44            
Apr 17 07:32 NE 1   Clear   41 37     87%              
Apr 17 06:32 NNE 3   Clear   39 36     88% 37            
Apr 17 05:32 NNE 3   Clear   38 35     90% 36            
Apr 17 04:32 Calm   Clear   38 35     89%              
Apr 17 03:32 N 2   Clear   40 36     87%              
Apr 17 02:32 NNE 4   Clear   38 36     91% 35            
Apr 17 01:32 NNE 4   Clear   38 35     89% 35            
Apr 17 00:32 NNW 2   Clear   40 36     86%              
Apr 16 23:32 N 4   Clear   40 37     88% 37            
Apr 16 22:32 NNW 5   Clear   41 37     84% 38            
Apr 16 21:32 NW 4   Clear   41 36     83% 38            
Apr 16 20:32 WNW 3   Clear   41 37     84% 39            
Apr 16 19:32 WSW 3   Clear   42 35     76% 41            
Apr 16 18:32 NW 5   Clear   48 35     61% 46            
Apr 16 17:32 SSW 9   Clear   49 34     57% 45            
Apr 16 16:32 SSW 7   Clear   50 38     63% 47            
Apr 16 15:32 S 7   Clear   48 42     80% 45            
Apr 16 14:32 SSW 12   Clear   48 34     58% 43            
Apr 16 13:32 SW 7   Clear   51 37     59%              
Apr 16 12:32 SSW 9   Clear   49 40     70% 45            
Jun 12 03:32 NNE 4   Clear   46 44     94% 44            
Jun 11 23:32 SSE 5   Clear   46 44     91% 44            
Jun 11 15:32 SW 5   Clear   61 41     47%              
Jun 11 06:32 WNW 3   Clear   47 42     82% 46            
Jun 11 01:32 N 6   Clear   45 42     88% 42            
Jun 08 16:32 SSW 8   Clear   59 56     90%              
Jun 08 01:32     Clear   56 28     34%              
Jun 07 19:32 N 2   Clear   60 51     72%